Аэропорт: Габала. Габала

ICAO: UBBQ

METAR:
2018/09/19 07:00
UBBQ 190700Z 25005KT 5000 -RA BR OVC016 16/15 Q1022 R16/////// NOSIG RMK MT OBSC
METAR:
Информация по данной станции не доступна